SUDU

Santa Bernardina International Airport

Durazno, Uruguay
TAF SUDU 242330Z 2500/2524 11005KT CAVOK TX23/2518Z TN10/2510Z
Issued Valid From Valid To
Sep-24 @ 23:30 UTC
(2 hours ago)
Sep-25 @ 00:00 UTC
(an hour ago)
Sep-26 @ 00:00 UTC
(in 23 hours)
Sep-25 @ 00:00 to Sep-26 @ 00:00
TAF SUDU 242330Z 2500/2524 11005KT CAVOK TX23/2518Z TN10/2510Z
Wind Visibility Clouds
110° at 5 knots 10,000+ meters
  • No significant clouds
TAF SUDU 242330Z 2500/2524 11005KT CAVOK TX23/2518Z TN10/2510Z
Issued Sep-24 @ 23:30 UTC
(2 hours ago)
Valid From Sep-25 @ 00:00 UTC
(an hour ago)
Valid To Sep-26 @ 00:00 UTC
(in 23 hours)
Sep-25 @ 00:00 - Sep-26 @ 00:00
Wind Visibility
110° at 5 knots 10,000+ meters
Clouds
  • No significant clouds